Time;durP1;ratioP1;P1;durP2;ratioP2;P2;SDS_P1;SDS_P2;PMS_P1;PMS_P2;Temp;Humidity;BMP_temperature;BMP_pressure;BME280_temperature;BME280_humidity;BME280_pressure;Samples;Min_cycle;Max_cycle;Signal;HPM_P1;HPM_P2
2022/01/23 00:00:19;;;;;;;15.40;11.07;;;5.20;99.90;;;;;;5053565;28;20205;-69
2022/01/23 00:02:47;;;;;;;17.37;11.00;;;5.20;99.90;;;;;;5057269;28;20251;-70
2022/01/23 00:05:13;;;;;;;14.33;11.10;;;5.10;99.90;;;;;;5055983;28;20197;-70
2022/01/23 00:07:40;;;;;;;14.50;11.00;;;5.10;99.90;;;;;;5058116;28;20663;-69
2022/01/23 00:10:06;;;;;;;17.13;11.33;;;5.10;99.90;;;;;;5054635;28;20268;-69
2022/01/23 00:12:39;;;;;;;15.20;10.87;;;5.20;99.90;;;;;;5055952;28;21221;-69
2022/01/23 00:17:48;;;;;;;12.07;10.20;;;5.20;99.90;;;;;;5050549;28;20259;-69
2022/01/23 00:20:14;;;;;;;13.87;10.60;;;5.20;99.90;;;;;;5059565;28;20444;-67
2022/01/23 00:22:54;;;;;;;15.00;10.57;;;5.20;99.90;;;;;;5063865;28;20374;-69
2022/01/23 00:30:49;;;;;;;12.20;9.50;;;5.20;99.90;;;;;;5054446;28;20557;-70
2022/01/23 00:33:16;;;;;;;13.67;10.83;;;5.20;99.90;;;;;;5056512;28;20189;-69
2022/01/23 00:35:43;;;;;;;14.13;11.03;;;5.20;99.90;;;;;;5056858;28;20226;-70
2022/01/23 00:38:10;;;;;;;11.93;9.83;;;5.20;99.90;;;;;;5055360;28;20699;-70
2022/01/23 00:40:37;;;;;;;12.97;9.77;;;5.20;99.90;;;;;;5054966;28;20190;-71
2022/01/23 00:43:13;;;;;;;12.30;9.97;;;5.20;99.90;;;;;;5054545;28;20332;-70
2022/01/23 00:45:44;;;;;;;13.10;9.73;;;5.30;99.90;;;;;;5053077;28;20181;-71
2022/01/23 00:48:12;;;;;;;13.47;9.87;;;5.20;99.90;;;;;;5055571;28;20199;-70
2022/01/23 00:50:40;;;;;;;11.43;8.67;;;5.30;99.90;;;;;;5056543;28;20714;-70
2022/01/23 00:53:09;;;;;;;9.63;8.47;;;5.30;99.90;;;;;;5055558;28;20202;-68
2022/01/23 00:55:35;;;;;;;11.90;9.30;;;5.30;99.90;;;;;;5058692;28;20276;-71
2022/01/23 00:58:01;;;;;;;12.70;9.53;;;5.30;99.90;;;;;;5054820;28;20293;-71
2022/01/23 01:00:26;;;;;;;12.13;9.03;;;5.30;99.90;;;;;;5058838;28;20248;-70
2022/01/23 01:02:52;;;;;;;9.53;7.67;;;5.30;99.90;;;;;;5055823;28;20558;-69
2022/01/23 01:05:18;;;;;;;9.87;7.47;;;5.30;99.90;;;;;;5057766;28;20509;-68
2022/01/23 01:07:44;;;;;;;10.70;7.53;;;5.50;99.90;;;;;;5053361;28;20566;-74
2022/01/23 01:10:19;;;;;;;12.10;8.17;;;5.50;99.90;;;;;;5056462;28;20198;-68
2022/01/23 01:12:47;;;;;;;9.47;7.57;;;5.40;99.90;;;;;;5050215;28;20198;-65
2022/01/23 01:31:38;;;;;;;8.73;7.17;;;5.30;99.90;;;;;;5056536;28;20268;-69
2022/01/23 01:34:23;;;;;;;8.77;6.33;;;5.40;99.90;;;;;;5046643;28;20810;-68
2022/01/23 01:36:51;;;;;;;7.70;6.50;;;5.40;99.90;;;;;;5056487;28;20283;-69
2022/01/23 01:39:23;;;;;;;8.63;6.67;;;5.40;99.90;;;;;;5054324;28;20198;-68
2022/01/23 01:41:50;;;;;;;8.73;7.37;;;5.40;99.90;;;;;;5057148;28;20222;-66
2022/01/23 01:44:17;;;;;;;8.70;6.10;;;5.40;99.90;;;;;;5062105;28;20182;-68
2022/01/23 01:46:43;;;;;;;6.63;5.37;;;5.40;99.90;;;;;;5057965;28;20191;-68
2022/01/23 01:49:09;;;;;;;6.60;5.90;;;5.40;99.90;;;;;;5055733;28;20185;-68
2022/01/23 01:51:35;;;;;;;6.13;5.47;;;5.40;99.90;;;;;;5063709;28;20209;-68
2022/01/23 01:54:08;;;;;;;7.20;5.90;;;5.40;99.90;;;;;;5060962;28;20214;-68
2022/01/23 01:56:49;;;;;;;6.03;5.30;;;5.30;99.90;;;;;;5057294;28;20327;-67
2022/01/23 01:59:34;;;;;;;7.40;5.77;;;5.30;99.90;;;;;;5055858;28;20206;-68
2022/01/23 02:09:56;;;;;;;7.67;5.60;;;5.30;99.90;;;;;;5065453;28;20260;-67
2022/01/23 02:18:18;;;;;;;6.57;5.67;;;5.40;99.90;;;;;;5048787;28;20264;-67
2022/01/23 02:24:03;;;;;;;7.40;6.13;;;5.40;99.90;;;;;;5055171;28;20233;-68
2022/01/23 02:52:05;;;;;;;7.53;5.53;;;5.40;99.90;;;;;;5063019;28;20212;-68
2022/01/23 02:56:51;;;;;;;5.87;5.03;;;5.40;99.90;;;;;;5063563;28;20229;-67
2022/01/23 02:59:25;;;;;;;7.40;5.83;;;5.40;99.90;;;;;;5055577;28;20220;-68
2022/01/23 03:02:09;;;;;;;6.83;6.10;;;5.40;99.90;;;;;;5043805;28;20666;-68
2022/01/23 03:04:39;;;;;;;6.83;6.13;;;5.40;99.90;;;;;;5062138;28;20220;-68
2022/01/23 03:07:20;;;;;;;7.77;5.83;;;5.40;99.90;;;;;;5053718;28;20580;-68
2022/01/23 03:09:57;;;;;;;6.20;5.33;;;5.40;99.90;;;;;;5057740;28;20205;-67
2022/01/23 03:15:25;;;;;;;7.03;5.47;;;5.40;99.90;;;;;;5055357;28;20243;-68
2022/01/23 03:26:15;;;;;;;6.87;5.83;;;5.40;99.90;;;;;;5053703;28;20213;-67
2022/01/23 03:29:04;;;;;;;6.10;5.23;;;5.40;99.90;;;;;;5051622;28;20178;-68
2022/01/23 03:31:44;;;;;;;5.60;4.83;;;5.40;99.90;;;;;;5048982;28;20815;-68
2022/01/23 03:34:10;;;;;;;6.47;5.77;;;5.40;99.90;;;;;;5046994;28;20202;-68
2022/01/23 03:36:37;;;;;;;5.90;4.83;;;5.40;99.90;;;;;;5064804;28;20205;-69
2022/01/23 03:39:06;;;;;;;6.13;5.30;;;5.40;99.90;;;;;;5051848;28;20207;-68
2022/01/23 03:41:34;;;;;;;6.07;4.93;;;5.30;99.90;;;;;;5054413;28;20290;-68
2022/01/23 03:44:01;;;;;;;5.80;5.23;;;5.40;99.90;;;;;;5050167;28;20885;-68
2022/01/23 03:51:55;;;;;;;7.03;5.40;;;5.40;99.90;;;;;;5049469;28;20190;-69
2022/01/23 03:54:22;;;;;;;6.93;5.13;;;5.40;99.90;;;;;;5055401;28;20186;-69
2022/01/23 03:56:48;;;;;;;7.07;6.00;;;5.40;99.90;;;;;;5062038;28;20198;-69
2022/01/23 03:59:13;;;;;;;5.77;5.10;;;5.40;99.90;;;;;;5056955;28;20515;-68
2022/01/23 04:01:39;;;;;;;6.03;5.07;;;5.40;99.90;;;;;;5063900;28;20202;-69
2022/01/23 04:04:14;;;;;;;8.63;6.70;;;5.40;99.90;;;;;;5053885;28;20226;-69
2022/01/23 04:06:39;;;;;;;6.37;5.77;;;5.40;99.90;;;;;;5056132;28;20217;-69
2022/01/23 04:09:05;;;;;;;7.53;5.87;;;5.40;99.90;;;;;;5055379;28;20256;-68
2022/01/23 04:11:30;;;;;;;8.43;6.30;;;5.40;99.90;;;;;;5067287;28;21095;-68
2022/01/23 04:14:02;;;;;;;8.70;5.97;;;5.40;99.90;;;;;;5053496;28;20634;-68
2022/01/23 04:35:20;;;;;;;8.77;5.93;;;5.30;99.90;;;;;;5059382;28;20182;-67
2022/01/23 04:45:17;;;;;;;6.47;5.87;;;5.40;99.90;;;;;;5058297;28;20194;-67
2022/01/23 04:47:23;;;;;;;9.47;5.47;;;5.40;99.90;;;;;;5055872;28;20193;-67
2022/01/23 04:59:48;;;;;;;7.37;5.67;;;5.30;99.90;;;;;;5059078;28;20196;-67
2022/01/23 05:04:46;;;;;;;7.20;5.17;;;5.20;99.90;;;;;;5067104;28;20702;-68
2022/01/23 05:07:13;;;;;;;6.77;5.30;;;5.20;99.90;;;;;;5060854;28;20198;-68
2022/01/23 05:09:39;;;;;;;7.77;5.60;;;5.20;99.90;;;;;;5053420;28;20220;-67
2022/01/23 05:12:08;;;;;;;8.00;5.77;;;5.20;99.90;;;;;;5064882;28;21468;-68
2022/01/23 05:14:37;;;;;;;7.27;5.20;;;5.20;99.90;;;;;;5052090;28;20372;-68
2022/01/23 05:17:05;;;;;;;6.63;5.60;;;5.30;99.90;;;;;;5062224;28;20198;-70
2022/01/23 05:19:32;;;;;;;6.00;5.27;;;5.30;99.90;;;;;;5059280;28;20198;-70
2022/01/23 05:24:32;;;;;;;7.37;6.07;;;5.30;99.90;;;;;;5055968;28;20677;-70
2022/01/23 05:27:00;;;;;;;7.73;6.37;;;5.20;99.90;;;;;;5057303;28;20268;-70
2022/01/23 05:29:26;;;;;;;7.73;6.33;;;5.20;99.90;;;;;;5056558;28;20190;-69
2022/01/23 05:31:53;;;;;;;7.57;6.10;;;5.30;99.90;;;;;;5056528;28;20689;-69
2022/01/23 05:34:20;;;;;;;8.43;6.97;;;5.30;99.90;;;;;;5053933;28;20654;-68
2022/01/23 05:36:46;;;;;;;9.13;7.07;;;5.30;99.90;;;;;;5064530;28;20218;-68
2022/01/23 05:39:13;;;;;;;10.07;6.80;;;5.30;99.90;;;;;;5060439;28;20186;-68
2022/01/23 05:41:39;;;;;;;12.80;6.90;;;5.30;99.90;;;;;;5066306;28;20757;-68
2022/01/23 05:44:04;;;;;;;9.93;7.20;;;5.30;99.90;;;;;;5048293;28;20198;-68
2022/01/23 05:46:30;;;;;;;9.27;6.70;;;5.30;99.90;;;;;;5066256;28;20194;-69
2022/01/23 05:48:55;;;;;;;7.63;6.53;;;5.30;99.90;;;;;;5056453;28;20198;-69
2022/01/23 05:51:21;;;;;;;10.87;7.80;;;5.30;99.90;;;;;;5064314;28;21028;-68
2022/01/23 05:53:47;;;;;;;8.93;7.03;;;5.30;99.90;;;;;;5063666;28;20294;-68
2022/01/23 05:56:13;;;;;;;9.13;6.97;;;5.40;99.90;;;;;;5065825;28;20354;-69
2022/01/23 05:58:38;;;;;;;10.33;7.57;;;5.30;99.90;;;;;;5053545;28;20199;-69
2022/01/23 06:01:05;;;;;;;9.73;7.77;;;5.30;99.90;;;;;;5058480;28;20693;-69
2022/01/23 06:03:30;;;;;;;12.90;7.53;;;5.40;99.90;;;;;;5049204;28;20661;-67
2022/01/23 06:05:56;;;;;;;10.23;8.07;;;5.40;99.90;;;;;;5065256;28;20251;-68
2022/01/23 06:08:23;;;;;;;10.03;7.53;;;5.40;99.90;;;;;;5059348;28;20289;-68
2022/01/23 06:10:57;;;;;;;11.20;8.10;;;5.30;99.90;;;;;;5065691;28;20182;-67
2022/01/23 06:13:25;;;;;;;11.00;8.23;;;5.30;99.90;;;;;;5049414;28;20200;-68
2022/01/23 06:15:51;;;;;;;7.23;6.47;;;5.30;99.90;;;;;;5065492;28;20277;-68
2022/01/23 06:18:17;;;;;;;9.20;6.73;;;5.30;99.90;;;;;;5051412;28;20206;-69
2022/01/23 06:20:43;;;;;;;10.00;6.60;;;5.30;99.90;;;;;;5065669;28;20535;-67
2022/01/23 06:23:08;;;;;;;9.83;8.60;;;5.30;99.90;;;;;;5055115;28;20218;-68
2022/01/23 06:25:36;;;;;;;13.03;8.27;;;5.30;99.90;;;;;;5064940;28;20186;-69
2022/01/23 06:28:06;;;;;;;11.60;8.23;;;5.20;99.90;;;;;;5063357;28;20335;-70
2022/01/23 06:30:34;;;;;;;8.93;7.07;;;5.20;99.90;;;;;;5065571;28;20213;-70
2022/01/23 06:33:00;;;;;;;11.63;7.80;;;5.20;99.90;;;;;;5053172;28;20214;-69
2022/01/23 06:35:26;;;;;;;11.37;8.20;;;5.20;99.90;;;;;;5059293;28;20203;-69
2022/01/23 06:37:51;;;;;;;8.90;7.27;;;5.30;99.90;;;;;;5062864;28;20214;-69
2022/01/23 06:40:17;;;;;;;12.57;9.23;;;5.30;99.90;;;;;;5064980;28;20201;-69
2022/01/23 06:42:43;;;;;;;10.53;8.00;;;5.30;99.90;;;;;;5063167;28;20224;-68
2022/01/23 06:45:08;;;;;;;10.03;8.50;;;5.30;99.90;;;;;;5065168;28;20190;-67
2022/01/23 06:47:34;;;;;;;11.00;8.43;;;5.40;99.90;;;;;;5056709;28;20203;-68
2022/01/23 06:49:59;;;;;;;10.77;7.43;;;5.40;99.90;;;;;;5057796;28;20660;-68
2022/01/23 06:52:25;;;;;;;11.77;8.67;;;5.40;99.90;;;;;;5062344;28;20212;-68
2022/01/23 06:54:50;;;;;;;14.43;8.33;;;5.40;99.90;;;;;;5059497;28;20197;-68
2022/01/23 06:57:16;;;;;;;11.67;8.70;;;5.40;99.90;;;;;;5062448;28;20252;-68
2022/01/23 06:59:42;;;;;;;12.27;10.37;;;5.40;99.90;;;;;;5053043;28;20178;-69
2022/01/23 07:02:08;;;;;;;11.10;7.40;;;5.40;99.90;;;;;;5062958;28;20210;-69
2022/01/23 07:04:33;;;;;;;11.20;8.20;;;5.40;99.90;;;;;;5062841;28;20275;-69
2022/01/23 07:06:59;;;;;;;9.97;7.67;;;5.30;99.90;;;;;;5062194;28;20700;-68
2022/01/23 07:09:25;;;;;;;10.93;8.00;;;5.40;99.90;;;;;;5065362;28;20190;-70
2022/01/23 07:11:50;;;;;;;12.87;9.07;;;5.40;99.90;;;;;;5056988;28;21056;-67
2022/01/23 07:14:16;;;;;;;10.80;7.30;;;5.40;99.90;;;;;;5055747;28;20186;-69
2022/01/23 07:16:41;;;;;;;9.03;7.67;;;5.40;99.90;;;;;;5064341;28;20197;-68
2022/01/23 07:19:07;;;;;;;8.47;7.03;;;5.40;99.90;;;;;;5053920;28;20256;-70
2022/01/23 07:21:32;;;;;;;10.10;6.60;;;5.40;99.90;;;;;;5064433;28;20209;-68
2022/01/23 07:23:58;;;;;;;8.33;7.43;;;5.40;99.90;;;;;;5054947;28;20209;-68
2022/01/23 07:26:25;;;;;;;10.37;7.63;;;5.40;99.90;;;;;;5063317;28;20284;-69
2022/01/23 07:28:53;;;;;;;9.50;7.67;;;5.50;99.90;;;;;;5062562;28;20201;-68
2022/01/23 07:34:06;;;;;;;11.33;6.97;;;5.50;99.90;;;;;;5049753;28;20600;-69
2022/01/23 07:36:32;;;;;;;11.23;7.70;;;5.50;99.90;;;;;;5063980;28;20718;-70
2022/01/23 07:38:57;;;;;;;9.33;7.80;;;5.40;99.90;;;;;;5048472;28;20297;-69
2022/01/23 07:41:23;;;;;;;13.10;7.27;;;5.50;99.90;;;;;;5062632;28;21067;-67
2022/01/23 07:43:49;;;;;;;8.37;6.30;;;5.50;99.90;;;;;;5053769;28;20199;-69
2022/01/23 07:46:16;;;;;;;7.93;7.00;;;5.40;99.90;;;;;;5068055;28;20206;-68
2022/01/23 07:48:41;;;;;;;8.97;7.23;;;5.50;99.90;;;;;;5054555;28;20214;-70
2022/01/23 07:51:07;;;;;;;9.20;6.57;;;5.50;99.90;;;;;;5067921;28;20198;-71
2022/01/23 07:53:33;;;;;;;7.60;6.43;;;5.50;99.90;;;;;;5054813;28;20202;-69
2022/01/23 07:55:59;;;;;;;8.17;6.87;;;5.50;99.90;;;;;;5066373;28;20645;-69
2022/01/23 07:58:24;;;;;;;7.77;6.27;;;5.60;99.90;;;;;;5057660;28;20570;-69
2022/01/23 08:00:49;;;;;;;9.93;5.93;;;5.60;99.90;;;;;;5068334;28;20182;-69
2022/01/23 08:03:15;;;;;;;8.77;6.27;;;5.60;99.90;;;;;;5053918;28;20315;-69
2022/01/23 08:05:42;;;;;;;8.63;6.00;;;5.60;99.90;;;;;;5067742;28;20190;-69
2022/01/23 08:08:08;;;;;;;8.63;6.00;;;5.60;99.90;;;;;;5058266;28;20543;-70
2022/01/23 08:10:33;;;;;;;6.07;5.30;;;5.70;99.90;;;;;;5068275;28;20251;-70
2022/01/23 08:13:00;;;;;;;7.70;6.13;;;5.70;99.90;;;;;;5064318;28;20734;-70
2022/01/23 08:15:25;;;;;;;7.70;6.30;;;5.70;99.90;;;;;;5067459;28;20194;-70
2022/01/23 08:17:51;;;;;;;8.23;6.33;;;5.80;99.90;;;;;;5065546;28;20202;-69
2022/01/23 08:20:16;;;;;;;8.40;5.83;;;5.80;99.90;;;;;;5067386;28;20186;-70
2022/01/23 08:22:42;;;;;;;7.67;5.50;;;5.80;99.90;;;;;;5057126;28;20223;-70
2022/01/23 08:25:08;;;;;;;7.07;6.00;;;5.80;99.90;;;;;;5065420;28;20190;-70
2022/01/23 08:27:34;;;;;;;7.23;5.90;;;5.90;99.90;;;;;;5065585;28;20680;-71
2022/01/23 08:30:01;;;;;;;6.97;4.50;;;5.90;99.90;;;;;;5055538;28;20239;-70
2022/01/23 08:32:26;;;;;;;7.97;5.13;;;6.00;99.90;;;;;;5060107;28;20320;-70
2022/01/23 08:34:52;;;;;;;8.67;5.23;;;6.00;99.90;;;;;;5060817;28;21136;-70
2022/01/23 08:37:20;;;;;;;6.13;5.10;;;6.10;99.90;;;;;;5065063;28;20225;-70
2022/01/23 08:39:45;;;;;;;5.70;5.07;;;6.00;99.90;;;;;;5059723;28;20221;-71
2022/01/23 08:42:15;;;;;;;6.33;5.03;;;6.00;99.90;;;;;;5064728;28;20209;-69
2022/01/23 08:44:42;;;;;;;6.73;5.77;;;5.90;99.90;;;;;;5068126;28;20273;-69
2022/01/23 08:47:08;;;;;;;7.10;5.20;;;5.90;99.90;;;;;;5061586;28;20295;-69
2022/01/23 08:49:40;;;;;;;9.27;5.03;;;6.00;99.90;;;;;;5060937;28;20182;-69
2022/01/23 08:52:06;;;;;;;6.20;5.07;;;6.00;99.90;;;;;;5063361;28;21100;-69
2022/01/23 08:54:31;;;;;;;8.17;5.53;;;6.00;99.90;;;;;;5066951;28;20190;-70
2022/01/23 08:56:57;;;;;;;5.97;5.37;;;6.10;99.90;;;;;;5062602;28;20199;-69
2022/01/23 08:59:24;;;;;;;5.50;4.70;;;6.00;99.90;;;;;;5054016;28;20201;-69
2022/01/23 09:01:50;;;;;;;8.00;5.20;;;6.10;99.90;;;;;;5064046;28;20704;-70
2022/01/23 09:04:16;;;;;;;6.50;4.97;;;6.00;99.90;;;;;;5054945;28;20371;-69
2022/01/23 09:06:46;;;;;;;5.40;4.37;;;6.10;99.90;;;;;;5067087;28;20201;-72
2022/01/23 09:09:19;;;;;;;5.87;5.27;;;6.10;99.90;;;;;;5059412;28;20186;-71
2022/01/23 09:14:20;;;;;;;8.20;5.60;;;6.10;99.90;;;;;;5059679;28;20272;-72
2022/01/23 09:16:46;;;;;;;7.27;5.07;;;6.10;99.90;;;;;;5059546;28;20225;-72
2022/01/23 09:19:12;;;;;;;6.00;5.40;;;6.00;99.90;;;;;;5060231;28;20199;-70
2022/01/23 09:21:39;;;;;;;6.13;5.10;;;6.10;99.90;;;;;;5055499;28;20702;-70
2022/01/23 09:24:05;;;;;;;8.27;5.17;;;6.10;99.90;;;;;;5067174;28;20937;-70
2022/01/23 09:26:33;;;;;;;6.13;4.63;;;6.10;99.90;;;;;;5053572;28;20576;-71
2022/01/23 09:29:01;;;;;;;6.40;5.10;;;6.10;99.90;;;;;;5056459;28;20560;-70
2022/01/23 09:31:33;;;;;;;5.57;4.30;;;6.10;99.90;;;;;;5064273;28;20213;-70
2022/01/23 09:33:58;;;;;;;5.17;4.57;;;6.10;99.90;;;;;;5063343;28;20190;-70
2022/01/23 09:36:24;;;;;;;6.77;5.03;;;6.20;99.90;;;;;;5053482;28;20600;-70
2022/01/23 09:38:49;;;;;;;5.47;4.97;;;6.20;99.90;;;;;;5066224;28;20289;-70
2022/01/23 09:41:17;;;;;;;6.17;4.80;;;6.30;99.90;;;;;;5060344;28;20218;-70
2022/01/23 09:43:43;;;;;;;5.63;5.07;;;6.30;99.90;;;;;;5065844;28;20624;-70
2022/01/23 09:46:09;;;;;;;5.73;4.20;;;6.40;99.90;;;;;;5064331;28;20209;-70
2022/01/23 09:48:35;;;;;;;5.10;4.47;;;6.40;99.90;;;;;;5066001;28;20285;-69
2022/01/23 09:51:02;;;;;;;4.60;4.20;;;6.40;99.90;;;;;;5064267;28;20213;-69
2022/01/23 09:53:28;;;;;;;4.90;4.37;;;6.30;99.90;;;;;;5049542;28;20683;-70
2022/01/23 09:55:59;;;;;;;5.70;4.47;;;6.30;99.90;;;;;;5064089;28;20255;-70
2022/01/23 09:58:25;;;;;;;5.67;5.07;;;6.30;99.90;;;;;;5055366;28;20656;-70
2022/01/23 10:00:51;;;;;;;5.27;4.20;;;6.30;99.90;;;;;;5057786;28;20203;-70
2022/01/23 10:03:19;;;;;;;5.23;3.83;;;6.30;99.90;;;;;;5058366;28;20375;-69
2022/01/23 10:05:52;;;;;;;4.93;4.30;;;6.30;99.90;;;;;;5064390;28;20204;-71
2022/01/23 10:08:18;;;;;;;6.43;4.53;;;6.30;99.90;;;;;;5048912;28;20679;-71
2022/01/23 10:10:50;;;;;;;5.97;4.63;;;6.40;99.90;;;;;;5063353;28;20194;-70
2022/01/23 10:13:16;;;;;;;6.87;5.20;;;6.30;99.90;;;;;;5065767;28;20198;-69
2022/01/23 10:15:42;;;;;;;5.17;4.50;;;6.30;99.90;;;;;;5060648;28;20273;-70
2022/01/23 10:18:08;;;;;;;4.83;4.33;;;6.40;99.90;;;;;;5054902;28;20286;-71
2022/01/23 10:20:33;;;;;;;6.43;4.30;;;6.30;99.90;;;;;;5058344;28;20212;-71
2022/01/23 10:22:59;;;;;;;4.97;4.43;;;6.30;99.90;;;;;;5053417;28;20940;-71
2022/01/23 10:25:30;;;;;;;5.20;3.90;;;6.40;99.90;;;;;;5056066;28;20187;-70
2022/01/23 10:28:18;;;;;;;7.10;3.97;;;6.40;99.90;;;;;;5052567;28;20667;-71
2022/01/23 10:30:56;;;;;;;4.93;4.17;;;6.50;99.90;;;;;;5052615;28;20205;-69
2022/01/23 10:33:32;;;;;;;5.53;4.93;;;6.60;99.90;;;;;;5056025;28;20174;-70
2022/01/23 10:36:19;;;;;;;5.50;4.20;;;6.70;99.90;;;;;;5053440;28;20206;-71
2022/01/23 10:38:58;;;;;;;6.53;5.00;;;6.60;99.90;;;;;;5055259;28;20236;-70
2022/01/23 10:46:40;;;;;;;4.47;3.97;;;6.60;99.90;;;;;;5055678;28;20193;-68
2022/01/23 10:49:55;;;;;;;4.97;4.37;;;6.60;99.90;;;;;;5056533;28;20273;-68
2022/01/23 10:52:36;;;;;;;5.77;3.70;;;6.70;99.90;;;;;;5053079;28;20548;-67
2022/01/23 10:55:11;;;;;;;4.00;3.57;;;6.70;99.90;;;;;;5053926;28;20281;-70
2022/01/23 10:57:40;;;;;;;6.07;4.20;;;6.70;99.90;;;;;;5051789;28;20621;-69
2022/01/23 11:00:27;;;;;;;4.37;3.50;;;6.70;99.90;;;;;;5051394;28;20199;-67
2022/01/23 11:02:55;;;;;;;4.17;3.67;;;6.80;99.90;;;;;;5053815;28;20205;-69
2022/01/23 11:05:29;;;;;;;3.77;3.33;;;6.80;99.90;;;;;;5053404;28;20184;-68
2022/01/23 11:07:55;;;;;;;5.93;3.80;;;6.90;99.90;;;;;;5054521;28;20182;-69
2022/01/23 11:10:21;;;;;;;4.07;3.67;;;6.90;99.90;;;;;;5053109;28;20178;-68
2022/01/23 11:18:08;;;;;;;4.03;3.33;;;7.20;99.90;;;;;;5052819;28;20220;-67
2022/01/23 11:20:48;;;;;;;3.17;2.80;;;7.30;99.90;;;;;;5052069;28;20283;-72
2022/01/23 11:23:18;;;;;;;3.13;2.83;;;7.40;99.90;;;;;;5055108;28;20221;-71
2022/01/23 11:26:08;;;;;;;3.77;3.17;;;7.40;99.90;;;;;;5046195;28;20260;-67
2022/01/23 11:28:41;;;;;;;3.40;3.10;;;7.30;99.90;;;;;;5054210;28;20646;-66
2022/01/23 11:31:22;;;;;;;3.57;3.20;;;7.60;99.90;;;;;;5064745;28;20190;-67
2022/01/23 11:33:48;;;;;;;2.93;2.60;;;8.00;99.90;;;;;;5059105;28;20284;-67
2022/01/23 11:36:14;;;;;;;4.40;2.70;;;8.30;99.90;;;;;;5057155;28;20678;-67
2022/01/23 11:38:43;;;;;;;3.57;2.90;;;8.30;99.90;;;;;;5060645;28;20194;-68
2022/01/23 11:55:29;;;;;;;3.00;2.70;;;8.40;99.90;;;;;;5053965;28;20700;-72
2022/01/23 11:57:55;;;;;;;2.63;2.20;;;8.40;99.90;;;;;;5055481;28;20202;-67
2022/01/23 12:00:27;;;;;;;2.57;2.37;;;8.30;99.90;;;;;;5061489;28;20236;-70
2022/01/23 12:03:19;;;;;;;2.90;2.67;;;8.30;99.90;;;;;;5054653;28;20209;-69
2022/01/23 12:05:47;;;;;;;4.53;2.63;;;8.40;99.90;;;;;;5050132;28;20205;-69
2022/01/23 12:08:35;;;;;;;2.93;2.33;;;8.30;99.90;;;;;;5054059;28;20183;-65
2022/01/23 12:11:35;;;;;;;2.40;2.20;;;8.30;99.90;;;;;;5048010;28;20198;-66
2022/01/23 12:16:59;;;;;;;2.90;2.70;;;8.30;99.90;;;;;;5051822;28;20692;-66
2022/01/23 12:19:26;;;;;;;3.17;2.27;;;8.30;99.90;;;;;;5051495;28;20218;-65
2022/01/23 12:21:54;;;;;;;3.67;2.63;;;8.30;99.90;;;;;;5051809;28;20765;-64
2022/01/23 12:24:22;;;;;;;1.93;1.83;;;8.40;99.90;;;;;;5050223;28;20640;-65
2022/01/23 12:26:49;;;;;;;2.07;1.87;;;8.50;99.90;;;;;;5056043;28;20206;-64
2022/01/23 12:29:23;;;;;;;2.17;1.97;;;8.60;99.90;;;;;;5055772;28;20620;-66
2022/01/23 12:31:50;;;;;;;2.67;2.27;;;8.50;99.90;;;;;;5058414;28;20225;-66
2022/01/23 12:34:15;;;;;;;2.63;2.43;;;8.50;99.90;;;;;;5056587;28;20692;-67
2022/01/23 12:36:52;;;;;;;2.70;2.50;;;8.40;99.90;;;;;;5055535;28;20216;-67
2022/01/23 12:39:19;;;;;;;2.30;1.90;;;8.40;99.90;;;;;;5052086;28;20521;-66
2022/01/23 12:41:47;;;;;;;2.10;1.90;;;8.30;99.90;;;;;;5055317;28;20210;-67
2022/01/23 12:44:28;;;;;;;4.00;2.13;;;8.40;99.90;;;;;;5052839;28;20186;-68
2022/01/23 12:46:57;;;;;;;2.23;1.90;;;8.30;99.90;;;;;;5055327;28;20179;-65
2022/01/23 12:49:26;;;;;;;1.83;1.73;;;8.30;99.90;;;;;;5054361;28;20194;-66
2022/01/23 12:52:14;;;;;;;2.87;1.80;;;8.10;99.90;;;;;;5056506;28;20178;-65
2022/01/23 12:54:58;;;;;;;1.90;1.60;;;8.10;99.90;;;;;;5048698;28;20214;-65
2022/01/23 12:57:42;;;;;;;3.27;2.37;;;8.10;99.90;;;;;;5055281;28;20557;-66
2022/01/23 13:00:19;;;;;;;1.93;1.40;;;8.00;99.90;;;;;;5053238;28;20203;-67
2022/01/23 13:02:49;;;;;;;2.20;2.00;;;8.00;99.90;;;;;;5056075;28;21071;-66
2022/01/23 13:05:16;;;;;;;1.63;1.53;;;8.00;99.90;;;;;;5065058;28;20206;-67
2022/01/23 13:08:05;;;;;;;2.43;2.23;;;7.90;99.90;;;;;;5062047;28;20724;-65
2022/01/23 13:13:23;;;;;;;2.17;1.97;;;7.80;99.90;;;;;;5053606;28;20186;-65
2022/01/23 13:16:17;;;;;;;2.53;1.93;;;7.90;99.90;;;;;;5053044;28;20198;-65
2022/01/23 13:19:18;;;;;;;2.40;1.37;;;7.90;99.90;;;;;;5054690;28;20274;-66
2022/01/23 13:28:14;;;;;;;1.83;1.73;;;7.80;99.90;;;;;;5055732;28;20193;-86
2022/01/23 13:30:20;;;;;;;1.47;1.37;;;7.60;99.90;;;;;;5051460;28;20202;-85
2022/01/23 13:32:48;;;;;;;3.17;1.50;;;7.50;99.90;;;;;;5054998;28;20304;-86
2022/01/23 13:35:16;;;;;;;2.63;1.60;;;7.50;99.90;;;;;;5049782;28;20585;-85
2022/01/23 13:37:46;;;;;;;1.40;1.30;;;7.50;99.90;;;;;;5060989;28;20570;-85
2022/01/23 13:40:24;;;;;;;1.80;1.63;;;7.40;99.90;;;;;;5057083;28;20194;-83
2022/01/23 13:48:01;;;;;;;1.80;1.70;;;7.40;99.90;;;;;;5058545;28;20206;-78
2022/01/23 13:59:41;;;;;;;2.17;1.50;;;7.40;99.90;;;;;;5056591;28;20217;-81
2022/01/23 14:02:21;;;;;;;1.10;1.00;;;7.30;99.90;;;;;;5051956;28;20608;-79
2022/01/23 14:04:55;;;;;;;2.73;1.97;;;7.30;99.90;;;;;;5059388;28;20199;-85
2022/01/23 14:07:23;;;;;;;1.30;1.30;;;7.30;99.90;;;;;;5063366;28;20486;-86
2022/01/23 14:09:50;;;;;;;2.37;1.50;;;7.30;99.90;;;;;;5061747;28;20185;-87
2022/01/23 14:12:18;;;;;;;2.63;1.43;;;7.20;99.90;;;;;;5059205;28;20202;-86
2022/01/23 14:14:56;;;;;;;1.50;1.40;;;7.20;99.90;;;;;;5059860;28;20670;-72
2022/01/23 14:17:24;;;;;;;1.77;1.33;;;7.20;99.90;;;;;;5045020;28;20210;-65
2022/01/23 14:19:57;;;;;;;1.10;1.10;;;7.40;99.90;;;;;;5064847;28;20269;-65
2022/01/23 14:22:28;;;;;;;1.23;1.13;;;7.70;99.90;;;;;;5053088;28;20804;-64
2022/01/23 14:25:09;;;;;;;1.77;1.50;;;7.90;99.90;;;;;;5055181;28;20682;-71
2022/01/23 14:27:39;;;;;;;1.93;1.10;;;8.00;99.90;;;;;;5051296;28;20213;-70
2022/01/23 14:30:09;;;;;;;2.90;1.10;;;8.00;99.90;;;;;;5060674;28;20197;-67
2022/01/23 14:32:49;;;;;;;2.03;1.50;;;8.00;99.90;;;;;;5057105;28;20186;-68
2022/01/23 14:35:18;;;;;;;1.37;1.23;;;8.00;99.90;;;;;;5051829;28;20178;-67
2022/01/23 14:37:46;;;;;;;1.20;1.00;;;8.00;99.90;;;;;;5055012;28;20205;-66
2022/01/23 14:40:17;;;;;;;0.97;0.97;;;8.00;99.90;;;;;;5055750;28;20216;-81
2022/01/23 14:43:05;;;;;;;1.53;1.20;;;7.80;99.90;;;;;;5057431;28;20212;-86
2022/01/23 14:45:46;;;;;;;1.57;1.47;;;7.60;99.90;;;;;;5053635;28;20285;-86
2022/01/23 14:48:14;;;;;;;1.23;1.23;;;7.50;99.90;;;;;;5059821;28;20197;-85
2022/01/23 14:50:50;;;;;;;4.27;1.40;;;7.50;99.90;;;;;;5054273;28;20240;-80
2022/01/23 14:53:23;;;;;;;1.23;1.17;;;7.40;99.90;;;;;;5055616;28;20193;-83
2022/01/23 14:55:55;;;;;;;1.47;1.40;;;7.40;99.90;;;;;;5054847;28;20198;-81
2022/01/23 14:58:22;;;;;;;1.17;1.13;;;7.30;99.90;;;;;;5062737;28;20753;-81
2022/01/23 15:00:51;;;;;;;1.33;1.30;;;7.30;99.90;;;;;;5049492;28;20208;-80
2022/01/23 15:03:21;;;;;;;1.00;1.00;;;7.30;99.90;;;;;;5060717;28;20259;-79
2022/01/23 15:05:46;;;;;;;1.43;1.33;;;7.20;99.90;;;;;;5063722;28;20178;-80
2022/01/23 15:08:13;;;;;;;3.90;2.70;;;7.20;99.90;;;;;;5060511;28;20729;-81
2022/01/23 15:10:44;;;;;;;29.60;17.10;;;7.20;99.90;;;;;;5063579;28;20649;-80
2022/01/23 15:13:11;;;;;;;1.80;1.67;;;7.20;99.90;;;;;;5065018;28;20202;-83
2022/01/23 15:15:37;;;;;;;0.90;0.90;;;7.20;99.90;;;;;;5071652;28;20577;-81
2022/01/23 15:18:07;;;;;;;0.83;0.83;;;7.20;99.90;;;;;;5072005;28;20197;-82
2022/01/23 15:20:36;;;;;;;1.10;1.00;;;7.20;99.90;;;;;;5080488;28;20182;-87
2022/01/23 15:23:03;;;;;;;2.77;1.20;;;7.20;99.90;;;;;;5178796;22;20334;-86
2022/01/23 15:25:29;;;;;;;2.97;2.40;;;7.20;99.90;;;;;;5023038;28;20192;-80
2022/01/23 15:27:55;;;;;;;0.90;0.90;;;7.10;99.90;;;;;;5023444;28;20202;-79
2022/01/23 15:30:23;;;;;;;1.63;1.30;;;7.10;99.90;;;;;;5024284;28;20712;-81
2022/01/23 15:32:51;;;;;;;6.43;3.57;;;7.10;99.90;;;;;;5022506;28;20206;-81
2022/01/23 15:35:18;;;;;;;2.00;0.83;;;7.00;99.90;;;;;;5026550;28;20393;-85
2022/01/23 15:37:44;;;;;;;2.17;1.50;;;7.00;99.90;;;;;;5048271;28;20179;-84
2022/01/23 15:40:11;;;;;;;0.90;0.90;;;7.00;99.90;;;;;;5048617;28;20223;-80
2022/01/23 15:42:37;;;;;;;0.70;0.70;;;7.00;99.90;;;;;;5058288;28;20623;-85
2022/01/23 15:45:04;;;;;;;1.53;1.10;;;7.00;99.90;;;;;;5036632;28;20691;-80
2022/01/23 15:47:29;;;;;;;1.90;1.20;;;6.90;99.90;;;;;;5046091;28;20191;-82
2022/01/23 15:49:55;;;;;;;3.17;2.47;;;6.90;99.90;;;;;;5047142;28;20821;-88
2022/01/23 15:52:20;;;;;;;1.00;0.90;;;6.90;99.90;;;;;;5031736;28;20566;-80
2022/01/23 15:54:46;;;;;;;1.20;1.10;;;6.90;99.90;;;;;;5033646;28;20203;-79
2022/01/23 15:57:11;;;;;;;1.50;1.00;;;6.90;99.90;;;;;;5043858;28;20198;-79
2022/01/23 15:59:37;;;;;;;0.80;0.80;;;6.90;99.90;;;;;;5032336;28;20218;-79
2022/01/23 16:02:06;;;;;;;2.47;1.50;;;6.90;99.90;;;;;;5048144;28;20730;-79
2022/01/23 16:04:34;;;;;;;1.33;1.10;;;6.90;99.90;;;;;;5044137;28;20191;-78
2022/01/23 16:06:59;;;;;;;0.80;0.80;;;6.90;99.90;;;;;;5047713;28;20262;-79
2022/01/23 16:09:25;;;;;;;1.20;0.80;;;6.90;99.90;;;;;;5037281;28;20285;-79